Time;durP1;ratioP1;P1;durP2;ratioP2;P2;SDS_P1;SDS_P2;PMS_P1;PMS_P2;Temp;Humidity;BMP_temperature;BMP_pressure;BME280_temperature;BME280_humidity;BME280_pressure;Samples;Min_cycle;Max_cycle;Signal;HPM_P1;HPM_P2
2023/09/24 00:00:15;;;;;;;15.00;8.97;;;23.00;53.60;;;;;;5054415;27;92194;-53
2023/09/24 00:02:45;;;;;;;14.70;8.17;;;23.00;53.70;;;;;;5054167;27;93977;-53
2023/09/24 00:05:13;;;;;;;15.70;8.13;;;23.00;53.60;;;;;;5053059;27;93697;-53
2023/09/24 00:07:41;;;;;;;12.23;7.20;;;23.00;53.70;;;;;;5054339;27;92048;-54
2023/09/24 00:10:10;;;;;;;13.17;8.50;;;23.00;53.60;;;;;;5053086;27;92107;-53
2023/09/24 00:12:38;;;;;;;16.70;7.93;;;23.00;53.60;;;;;;5050837;27;93093;-54
2023/09/24 00:15:08;;;;;;;13.73;8.57;;;23.00;53.70;;;;;;5052264;27;92667;-53
2023/09/24 00:17:36;;;;;;;16.90;7.07;;;23.00;53.60;;;;;;5053272;27;92223;-53
2023/09/24 00:20:07;;;;;;;17.37;8.67;;;23.00;53.50;;;;;;5054627;27;91932;-54
2023/09/24 00:22:35;;;;;;;15.07;8.73;;;23.00;53.50;;;;;;5056462;27;92919;-53
2023/09/24 00:25:05;;;;;;;16.43;8.37;;;23.00;53.50;;;;;;5056417;27;93597;-53
2023/09/24 00:27:33;;;;;;;14.30;9.03;;;23.00;53.50;;;;;;5056669;27;93078;-53
2023/09/24 00:30:02;;;;;;;13.97;8.17;;;23.00;53.50;;;;;;5057014;27;92310;-53
2023/09/24 00:32:31;;;;;;;16.93;8.97;;;23.00;53.50;;;;;;5057285;27;93215;-54
2023/09/24 00:34:59;;;;;;;17.53;9.50;;;23.00;53.50;;;;;;5053399;27;93847;-53
2023/09/24 00:37:28;;;;;;;15.73;9.20;;;23.00;53.50;;;;;;5057109;27;92113;-54
2023/09/24 00:39:56;;;;;;;13.43;8.30;;;22.90;53.50;;;;;;5057071;27;92793;-53
2023/09/24 00:42:27;;;;;;;14.60;8.63;;;23.00;53.50;;;;;;5057292;27;93086;-53
2023/09/24 00:44:55;;;;;;;19.47;9.17;;;23.00;53.50;;;;;;5057256;27;92993;-53
2023/09/24 00:47:23;;;;;;;19.30;10.00;;;23.00;53.50;;;;;;5055295;27;92067;-53
2023/09/24 00:49:54;;;;;;;15.63;8.73;;;22.90;54.20;;;;;;5055845;27;93615;-54
2023/09/24 00:52:22;;;;;;;16.43;8.47;;;22.90;53.50;;;;;;5056463;27;94741;-54
2023/09/24 00:54:51;;;;;;;15.40;8.77;;;22.90;54.10;;;;;;5056197;27;93124;-54
2023/09/24 00:57:19;;;;;;;17.37;9.00;;;22.90;53.50;;;;;;5057389;27;92094;-53
2023/09/24 00:59:47;;;;;;;18.03;10.07;;;22.90;53.40;;;;;;5057013;27;92057;-53
2023/09/24 01:02:16;;;;;;;13.77;9.47;;;22.90;53.50;;;;;;5055783;27;93258;-53
2023/09/24 01:04:45;;;;;;;14.37;8.23;;;22.90;53.50;;;;;;5056908;27;92094;-53
2023/09/24 01:07:13;;;;;;;16.63;8.93;;;22.90;53.50;;;;;;5057550;27;92791;-54
2023/09/24 01:09:42;;;;;;;13.77;8.70;;;22.90;53.50;;;;;;5058037;27;93733;-53
2023/09/24 01:12:22;;;;;;;15.77;9.77;;;22.90;53.40;;;;;;5056764;27;94385;-54
2023/09/24 01:14:50;;;;;;;14.90;8.97;;;22.80;53.40;;;;;;5057285;27;92867;-54
2023/09/24 01:17:20;;;;;;;13.60;7.10;;;22.90;53.50;;;;;;5050274;27;93757;-54
2023/09/24 01:19:48;;;;;;;16.20;8.43;;;22.80;53.40;;;;;;5036128;28;92155;-54
2023/09/24 01:22:18;;;;;;;14.27;9.03;;;22.80;53.40;;;;;;5039662;28;93139;-54
2023/09/24 01:24:46;;;;;;;15.80;8.03;;;22.80;53.40;;;;;;5039856;28;92755;-54
2023/09/24 01:27:14;;;;;;;13.10;8.37;;;22.80;53.40;;;;;;5039748;28;91906;-53
2023/09/24 01:29:42;;;;;;;15.13;8.83;;;22.80;53.40;;;;;;5039221;28;92100;-54
2023/09/24 01:32:11;;;;;;;10.23;6.97;;;22.80;53.40;;;;;;5038809;27;92901;-53
2023/09/24 01:34:40;;;;;;;14.67;8.40;;;22.80;53.40;;;;;;5039557;28;92782;-54
2023/09/24 01:37:09;;;;;;;13.43;7.97;;;22.80;53.30;;;;;;5039868;28;92112;-54
2023/09/24 01:39:39;;;;;;;14.97;8.20;;;22.80;53.40;;;;;;5039570;28;92091;-54
2023/09/24 01:42:13;;;;;;;16.30;8.57;;;22.80;53.30;;;;;;5038774;28;93934;-54
2023/09/24 01:44:42;;;;;;;11.33;6.87;;;22.80;53.30;;;;;;5039186;28;93747;-54
2023/09/24 01:47:11;;;;;;;10.70;7.17;;;22.80;53.30;;;;;;5039489;28;92114;-53
2023/09/24 01:49:39;;;;;;;12.27;7.73;;;22.80;53.40;;;;;;5039529;28;92107;-54
2023/09/24 01:52:08;;;;;;;10.20;7.97;;;22.80;53.40;;;;;;5039040;28;93113;-53
2023/09/24 01:54:38;;;;;;;12.93;8.27;;;22.70;53.40;;;;;;5038556;28;92974;-54
2023/09/24 01:57:07;;;;;;;11.97;7.57;;;22.80;53.40;;;;;;5042815;27;92132;-53
2023/09/24 01:59:35;;;;;;;12.27;6.70;;;22.80;53.40;;;;;;5059811;27;91256;-53
2023/09/24 02:02:05;;;;;;;11.63;7.50;;;22.80;53.40;;;;;;5058923;27;93227;-53
2023/09/24 02:04:33;;;;;;;17.03;8.17;;;22.80;53.40;;;;;;5059178;27;93621;-54
2023/09/24 02:07:03;;;;;;;15.07;7.80;;;22.80;53.40;;;;;;5059100;27;92914;-53
2023/09/24 02:09:35;;;;;;;11.60;6.87;;;22.80;53.40;;;;;;5059388;27;92118;-53
2023/09/24 02:12:05;;;;;;;13.03;6.83;;;22.80;53.40;;;;;;5059417;27;94201;-54
2023/09/24 02:14:33;;;;;;;16.20;6.50;;;22.70;53.30;;;;;;5050296;27;93933;-53
2023/09/24 02:17:02;;;;;;;12.90;7.53;;;22.70;53.30;;;;;;5037483;27;92166;-54
2023/09/24 02:19:31;;;;;;;12.90;6.47;;;22.80;53.30;;;;;;5038548;27;92029;-53
2023/09/24 02:21:59;;;;;;;7.97;6.17;;;22.70;53.30;;;;;;5038563;28;93087;-54
2023/09/24 02:24:27;;;;;;;10.80;6.10;;;22.70;53.30;;;;;;5038522;27;92735;-54
2023/09/24 02:26:55;;;;;;;12.40;7.03;;;22.70;53.30;;;;;;5039430;27;91865;-53
2023/09/24 02:29:24;;;;;;;11.13;6.80;;;22.70;53.30;;;;;;5039041;27;92082;-54
2023/09/24 02:31:53;;;;;;;11.47;6.30;;;22.80;53.30;;;;;;5038629;27;94089;-54
2023/09/24 02:34:21;;;;;;;10.27;6.73;;;22.70;53.30;;;;;;5020510;27;94798;-53
2023/09/24 02:36:52;;;;;;;10.23;6.30;;;22.70;53.30;;;;;;5019126;28;92029;-53
2023/09/24 02:39:22;;;;;;;8.63;5.83;;;22.70;53.20;;;;;;5019049;28;92050;-53
2023/09/24 02:41:50;;;;;;;9.30;5.67;;;22.70;53.20;;;;;;5019344;28;93144;-53
2023/09/24 02:44:19;;;;;;;9.03;4.83;;;22.70;53.20;;;;;;5017352;28;94169;-53
2023/09/24 02:46:48;;;;;;;7.83;5.07;;;22.70;53.90;;;;;;5035468;28;92854;-54
2023/09/24 02:49:16;;;;;;;6.83;4.73;;;22.70;53.30;;;;;;5036495;28;91342;-54
2023/09/24 02:51:45;;;;;;;6.43;4.90;;;22.70;53.30;;;;;;5037438;28;94189;-53
2023/09/24 02:54:13;;;;;;;8.03;5.33;;;22.70;53.20;;;;;;5036934;27;92791;-54
2023/09/24 02:56:41;;;;;;;8.97;4.67;;;22.70;53.30;;;;;;5037913;28;92970;-54
2023/09/24 02:59:11;;;;;;;9.40;5.20;;;22.70;53.30;;;;;;5045373;27;91939;-53
2023/09/24 03:01:46;;;;;;;8.53;4.47;;;22.70;53.20;;;;;;5038342;28;93450;-52
2023/09/24 03:04:17;;;;;;;5.77;3.83;;;22.70;53.80;;;;;;5037787;28;92702;-53
2023/09/24 03:06:48;;;;;;;6.93;4.80;;;22.60;53.20;;;;;;5038880;28;91878;-53
2023/09/24 03:09:18;;;;;;;9.13;5.13;;;22.60;53.10;;;;;;5043267;27;92025;-54
2023/09/24 03:11:46;;;;;;;9.03;4.93;;;22.60;53.20;;;;;;5058518;27;93062;-53
2023/09/24 03:14:14;;;;;;;7.80;4.40;;;22.60;53.10;;;;;;5058946;27;92888;-54
2023/09/24 03:16:42;;;;;;;6.43;4.10;;;22.60;53.20;;;;;;5058291;27;92026;-53
2023/09/24 03:19:10;;;;;;;5.53;4.33;;;22.60;53.20;;;;;;5058870;27;92166;-54
2023/09/24 03:21:40;;;;;;;7.87;4.47;;;22.60;53.20;;;;;;5063932;27;94054;-53
2023/09/24 03:24:11;;;;;;;7.43;4.13;;;22.60;53.20;;;;;;5078411;27;93327;-53
2023/09/24 03:26:39;;;;;;;6.80;4.60;;;22.60;53.20;;;;;;5078767;27;91984;-54
2023/09/24 03:29:07;;;;;;;6.90;4.47;;;22.60;53.20;;;;;;5078271;27;92046;-54
2023/09/24 03:31:35;;;;;;;6.37;4.50;;;22.60;53.20;;;;;;5078086;27;94246;-53
2023/09/24 03:34:03;;;;;;;6.03;4.23;;;22.60;53.20;;;;;;5039693;27;93958;-54
2023/09/24 03:36:32;;;;;;;5.77;3.77;;;22.60;53.20;;;;;;5037590;28;92040;-53
2023/09/24 03:39:01;;;;;;;9.33;4.83;;;22.50;53.10;;;;;;5037759;28;91355;-53
2023/09/24 03:41:29;;;;;;;7.67;4.93;;;22.60;53.20;;;;;;5037044;28;93019;-53
2023/09/24 03:43:57;;;;;;;9.10;4.37;;;22.50;53.10;;;;;;5037802;28;92826;-54
2023/09/24 03:46:25;;;;;;;7.63;4.03;;;22.50;53.10;;;;;;5036992;28;93715;-53
2023/09/24 03:48:53;;;;;;;4.50;3.23;;;22.50;53.10;;;;;;5038052;27;91961;-54
2023/09/24 03:51:21;;;;;;;4.37;3.70;;;22.60;53.20;;;;;;5037251;28;93039;-54
2023/09/24 03:53:50;;;;;;;5.90;4.20;;;22.50;53.10;;;;;;5037386;28;92788;-53
2023/09/24 03:56:20;;;;;;;6.67;4.20;;;22.50;53.10;;;;;;5039113;27;92009;-53
2023/09/24 03:58:48;;;;;;;5.87;3.83;;;22.50;53.70;;;;;;5057933;27;92060;-53
2023/09/24 04:01:17;;;;;;;8.03;4.63;;;22.60;53.20;;;;;;5056830;27;94098;-54
2023/09/24 04:03:46;;;;;;;6.47;4.27;;;22.50;53.10;;;;;;5057740;27;92752;-54
2023/09/24 04:06:14;;;;;;;6.03;3.83;;;22.50;53.10;;;;;;5057861;27;91898;-54
2023/09/24 04:08:42;;;;;;;4.63;3.30;;;22.50;53.10;;;;;;5056950;27;92096;-53
2023/09/24 04:11:13;;;;;;;8.10;3.50;;;22.50;53.10;;;;;;5055848;27;93815;-53
2023/09/24 04:13:43;;;;;;;5.70;3.07;;;22.50;53.10;;;;;;5054552;27;94614;-53
2023/09/24 04:16:12;;;;;;;7.07;3.37;;;22.50;53.10;;;;;;5057152;27;93411;-52
2023/09/24 04:18:41;;;;;;;6.77;3.90;;;22.50;53.10;;;;;;5057477;27;92089;-53
2023/09/24 04:21:16;;;;;;;5.97;3.70;;;22.50;53.00;;;;;;5057018;27;93111;-53
2023/09/24 04:23:45;;;;;;;4.97;3.23;;;22.50;53.10;;;;;;5056958;27;92900;-53
2023/09/24 04:26:23;;;;;;;5.97;4.53;;;22.50;53.00;;;;;;5057734;27;92212;-53
2023/09/24 04:28:54;;;;;;;7.33;4.07;;;22.50;53.10;;;;;;5045413;27;91293;-53
2023/09/24 04:31:22;;;;;;;8.77;3.93;;;22.50;53.00;;;;;;5036427;28;94140;-53
2023/09/24 04:33:50;;;;;;;4.03;3.20;;;22.50;53.00;;;;;;5036150;28;93800;-53
2023/09/24 04:36:19;;;;;;;4.77;3.00;;;22.50;53.00;;;;;;5036853;28;92930;-53
2023/09/24 04:38:47;;;;;;;4.00;3.40;;;22.50;53.10;;;;;;5045522;27;91958;-53
2023/09/24 04:41:16;;;;;;;5.43;3.93;;;22.50;53.00;;;;;;5056978;27;93160;-53
2023/09/24 04:43:45;;;;;;;7.50;4.00;;;22.50;53.30;;;;;;5056681;27;91747;-54
2023/09/24 04:46:15;;;;;;;6.13;3.83;;;22.50;53.10;;;;;;5056433;27;92043;-53
2023/09/24 04:48:43;;;;;;;4.67;3.20;;;22.40;53.00;;;;;;5056117;27;92054;-53
2023/09/24 04:51:11;;;;;;;4.63;3.37;;;22.50;53.00;;;;;;5057110;27;94083;-53
2023/09/24 04:53:40;;;;;;;6.47;4.10;;;22.40;53.00;;;;;;5056999;27;92791;-53
2023/09/24 04:56:08;;;;;;;5.87;3.67;;;22.40;53.00;;;;;;5056854;27;92029;-53
2023/09/24 04:58:36;;;;;;;4.90;3.60;;;22.40;53.00;;;;;;5056650;27;92106;-53
2023/09/24 05:01:05;;;;;;;3.03;2.70;;;22.40;53.00;;;;;;5055850;27;95157;-53
2023/09/24 05:03:36;;;;;;;6.27;3.50;;;22.40;53.00;;;;;;5056820;27;94697;-53
2023/09/24 05:06:05;;;;;;;8.00;3.93;;;22.40;53.00;;;;;;5057011;27;92016;-53
2023/09/24 05:08:34;;;;;;;6.47;3.70;;;22.40;53.00;;;;;;5058986;27;92137;-53
2023/09/24 05:11:03;;;;;;;6.93;3.30;;;22.40;53.00;;;;;;5059721;27;93976;-53
2023/09/24 05:13:31;;;;;;;6.40;3.43;;;22.40;53.00;;;;;;5060157;27;93973;-54
2023/09/24 05:16:01;;;;;;;5.67;3.23;;;22.40;53.00;;;;;;5059774;27;92139;-53
2023/09/24 05:18:29;;;;;;;4.23;2.87;;;22.40;53.00;;;;;;5054407;27;91366;-53
2023/09/24 05:20:59;;;;;;;4.40;3.10;;;22.40;53.00;;;;;;5071068;27;93207;-53
2023/09/24 05:23:27;;;;;;;5.00;3.13;;;22.40;53.00;;;;;;5076268;27;93800;-53
2023/09/24 05:25:55;;;;;;;9.33;3.67;;;22.40;53.00;;;;;;5057740;27;93084;-53
2023/09/24 05:28:23;;;;;;;6.60;3.53;;;22.40;53.00;;;;;;5058520;27;92266;-52
2023/09/24 05:30:54;;;;;;;7.20;4.53;;;22.40;53.00;;;;;;5057019;27;93737;-52
2023/09/24 05:33:22;;;;;;;6.50;3.47;;;22.30;52.80;;;;;;5055661;27;93952;-53
2023/09/24 05:35:51;;;;;;;6.27;4.17;;;22.40;52.90;;;;;;5058377;27;92159;-53
2023/09/24 05:38:22;;;;;;;6.07;4.10;;;22.30;52.80;;;;;;5056280;27;93253;-52
2023/09/24 05:40:50;;;;;;;8.53;4.23;;;22.30;52.80;;;;;;5057703;27;93070;-53
2023/09/24 05:43:18;;;;;;;10.00;5.00;;;22.30;52.80;;;;;;5059413;27;93794;-53
2023/09/24 05:45:46;;;;;;;6.07;4.60;;;22.30;52.80;;;;;;5059185;27;92039;-53
2023/09/24 05:48:15;;;;;;;7.53;4.97;;;22.30;52.80;;;;;;5058099;27;92177;-53
2023/09/24 05:50:43;;;;;;;6.63;4.00;;;22.30;52.80;;;;;;5057975;27;94020;-52
2023/09/24 05:53:11;;;;;;;8.97;5.60;;;22.40;52.90;;;;;;5055236;27;93838;-53
2023/09/24 05:55:41;;;;;;;9.03;5.43;;;22.30;52.70;;;;;;5056317;27;92537;-53
2023/09/24 05:58:09;;;;;;;8.40;4.93;;;22.30;52.70;;;;;;5057306;27;92104;-53
2023/09/24 06:00:37;;;;;;;9.57;5.57;;;22.40;52.80;;;;;;5058294;27;92040;-53
2023/09/24 06:03:06;;;;;;;9.63;4.70;;;22.40;52.80;;;;;;5058095;27;93859;-52
2023/09/24 06:05:38;;;;;;;11.37;5.30;;;22.40;52.70;;;;;;5059240;27;92121;-53
2023/09/24 06:08:06;;;;;;;8.17;5.23;;;22.40;52.70;;;;;;5056976;27;91265;-53
2023/09/24 06:10:35;;;;;;;8.03;5.37;;;22.40;53.30;;;;;;5058485;27;93074;-53
2023/09/24 06:13:04;;;;;;;7.10;4.47;;;22.40;52.60;;;;;;5058184;27;92828;-53
2023/09/24 06:15:33;;;;;;;9.40;5.10;;;22.50;52.70;;;;;;5057729;27;93036;-53
2023/09/24 06:18:01;;;;;;;9.00;5.40;;;22.50;53.30;;;;;;5055911;27;92351;-53
2023/09/24 06:20:29;;;;;;;8.00;5.40;;;22.40;52.60;;;;;;5057962;27;93186;-53
2023/09/24 06:22:57;;;;;;;8.40;5.07;;;22.40;52.60;;;;;;5057955;27;92051;-53
2023/09/24 06:25:25;;;;;;;7.90;5.23;;;22.40;52.60;;;;;;5057503;27;92198;-53
2023/09/24 06:27:54;;;;;;;9.33;5.50;;;22.40;52.50;;;;;;5057850;27;92078;-52
2023/09/24 06:30:24;;;;;;;7.20;4.07;;;22.40;52.50;;;;;;5055699;27;92162;-53
2023/09/24 06:32:52;;;;;;;11.53;5.03;;;22.50;52.60;;;;;;5058438;27;92746;-52
2023/09/24 06:35:20;;;;;;;7.90;4.80;;;22.40;52.50;;;;;;5056734;27;92105;-53
2023/09/24 06:37:48;;;;;;;8.20;4.60;;;22.50;52.60;;;;;;5057812;27;92058;-53
2023/09/24 06:40:16;;;;;;;8.07;4.90;;;22.50;52.60;;;;;;5057400;27;95263;-53
2023/09/24 06:42:45;;;;;;;5.60;3.77;;;22.40;52.50;;;;;;5054578;27;93725;-53
2023/09/24 06:45:13;;;;;;;9.50;4.63;;;22.50;52.60;;;;;;5057210;27;92182;-53
2023/09/24 06:47:43;;;;;;;7.47;4.53;;;22.50;52.60;;;;;;5056806;27;92184;-52
2023/09/24 06:50:11;;;;;;;8.90;4.37;;;22.40;52.50;;;;;;5053727;27;93612;-53
2023/09/24 06:52:40;;;;;;;8.87;5.63;;;22.50;52.60;;;;;;5054313;27;92771;-55
2023/09/24 06:55:09;;;;;;;8.97;5.13;;;22.40;52.40;;;;;;5054175;27;92126;-53
2023/09/24 06:57:37;;;;;;;8.77;5.60;;;22.50;52.50;;;;;;5050927;27;91565;-53
2023/09/24 07:00:08;;;;;;;8.80;4.57;;;22.40;52.40;;;;;;5053924;27;94087;-52
2023/09/24 07:02:36;;;;;;;9.83;4.83;;;22.40;52.40;;;;;;5054267;27;93826;-52
2023/09/24 07:05:07;;;;;;;8.37;4.90;;;22.40;52.50;;;;;;5053250;27;93074;-53
2023/09/24 07:07:35;;;;;;;6.10;4.90;;;22.40;52.40;;;;;;5054967;27;92653;-53
2023/09/24 07:10:03;;;;;;;10.43;5.03;;;22.40;53.00;;;;;;5054634;27;94407;-53
2023/09/24 07:12:31;;;;;;;8.60;4.90;;;22.40;52.40;;;;;;5054697;27;93714;-53
2023/09/24 07:14:59;;;;;;;7.93;5.07;;;22.40;52.40;;;;;;5055311;27;92016;-53
2023/09/24 07:17:27;;;;;;;8.90;5.23;;;22.40;52.40;;;;;;5054510;27;92234;-52
2023/09/24 07:19:55;;;;;;;8.47;5.17;;;22.40;52.40;;;;;;5051574;27;93404;-53
2023/09/24 07:22:26;;;;;;;8.43;5.07;;;22.40;52.40;;;;;;5051914;27;93987;-53
2023/09/24 07:24:54;;;;;;;8.67;5.30;;;22.40;52.30;;;;;;5054146;27;92184;-53
2023/09/24 07:27:24;;;;;;;9.47;5.37;;;22.50;52.50;;;;;;5054662;27;92786;-55
2023/09/24 07:29:52;;;;;;;7.57;4.93;;;22.50;52.40;;;;;;5052185;27;94320;-53
2023/09/24 07:32:20;;;;;;;9.03;5.20;;;22.40;52.40;;;;;;5054315;27;96567;-53
2023/09/24 07:34:48;;;;;;;7.67;4.87;;;22.40;52.40;;;;;;5054957;27;92090;-53
2023/09/24 07:37:16;;;;;;;8.87;5.23;;;22.40;52.30;;;;;;5054518;27;92091;-53
2023/09/24 07:39:49;;;;;;;8.80;5.20;;;22.40;52.30;;;;;;5054742;27;92270;-53
2023/09/24 07:42:17;;;;;;;8.53;4.37;;;22.50;52.40;;;;;;5052397;27;92773;-53
2023/09/24 07:44:45;;;;;;;7.10;4.03;;;22.40;52.30;;;;;;5053750;27;92195;-53
2023/09/24 07:47:14;;;;;;;6.70;4.03;;;22.40;52.30;;;;;;5054385;27;91386;-53
2023/09/24 07:49:44;;;;;;;7.00;4.80;;;22.40;52.30;;;;;;5053722;27;93145;-53
2023/09/24 07:52:12;;;;;;;6.50;4.17;;;22.40;52.30;;;;;;5051270;27;94925;-53
2023/09/24 07:54:40;;;;;;;6.67;3.93;;;22.40;52.30;;;;;;5053964;27;93645;-54
2023/09/24 07:57:10;;;;;;;9.10;4.87;;;22.40;52.30;;;;;;5051983;27;92429;-54
2023/09/24 07:59:38;;;;;;;6.93;4.93;;;22.40;52.30;;;;;;5053373;27;93515;-53
2023/09/24 08:02:06;;;;;;;6.87;4.47;;;22.40;52.30;;;;;;5053339;27;92746;-53
2023/09/24 08:04:34;;;;;;;8.27;4.87;;;22.40;52.30;;;;;;5055304;27;92226;-53
2023/09/24 08:07:03;;;;;;;6.53;4.60;;;22.40;52.30;;;;;;5053967;27;92757;-54
2023/09/24 08:09:31;;;;;;;8.47;5.20;;;22.40;53.00;;;;;;5054010;27;94071;-54
2023/09/24 08:12:00;;;;;;;7.23;3.90;;;22.50;52.40;;;;;;5051474;27;92929;-54
2023/09/24 08:14:30;;;;;;;6.83;4.50;;;22.40;52.30;;;;;;5054630;27;92071;-54
2023/09/24 08:16:58;;;;;;;5.53;4.13;;;22.40;52.30;;;;;;5053666;27;92175;-53
2023/09/24 08:19:30;;;;;;;5.77;3.97;;;22.50;52.40;;;;;;5052736;27;94355;-53
2023/09/24 08:21:59;;;;;;;5.17;3.67;;;22.40;52.30;;;;;;5053804;27;94471;-53
2023/09/24 08:24:27;;;;;;;4.37;3.80;;;22.40;52.30;;;;;;5053021;27;92079;-53
2023/09/24 08:26:55;;;;;;;5.27;3.43;;;22.40;52.30;;;;;;5053909;27;93468;-53
2023/09/24 08:29:23;;;;;;;4.17;3.03;;;22.40;52.20;;;;;;5053072;27;94235;-52
2023/09/24 08:31:52;;;;;;;5.17;3.50;;;22.50;52.40;;;;;;5053410;27;92759;-53
2023/09/24 08:34:21;;;;;;;3.97;2.90;;;22.50;52.30;;;;;;5053191;27;92662;-53
2023/09/24 08:36:49;;;;;;;7.30;3.63;;;22.50;52.30;;;;;;5053841;27;91962;-54
2023/09/24 08:39:17;;;;;;;6.90;3.80;;;22.50;52.30;;;;;;5053832;27;94083;-52
2023/09/24 08:41:45;;;;;;;5.30;2.53;;;22.50;52.30;;;;;;5053207;27;93983;-53
2023/09/24 08:44:15;;;;;;;4.43;2.60;;;22.50;52.30;;;;;;5057543;27;93190;-53
2023/09/24 08:46:43;;;;;;;5.63;3.37;;;22.50;52.30;;;;;;5056578;27;92064;-53
2023/09/24 08:49:13;;;;;;;5.17;3.50;;;22.50;52.30;;;;;;5055828;27;93076;-53
2023/09/24 08:51:42;;;;;;;5.43;2.80;;;22.50;52.30;;;;;;5057111;27;92741;-54
2023/09/24 08:54:10;;;;;;;7.20;2.93;;;22.50;52.30;;;;;;5056983;27;92057;-54
2023/09/24 08:56:38;;;;;;;3.80;2.40;;;22.50;52.30;;;;;;5056423;27;92067;-53
2023/09/24 08:59:06;;;;;;;3.73;2.53;;;22.50;52.30;;;;;;5052563;27;92706;-54
2023/09/24 09:01:35;;;;;;;3.07;2.43;;;22.50;52.30;;;;;;5056915;27;93412;-54
2023/09/24 09:04:04;;;;;;;5.87;2.43;;;22.50;52.20;;;;;;5057520;27;92395;-53
2023/09/24 09:06:34;;;;;;;3.57;2.67;;;22.50;52.20;;;;;;5057044;27;92734;-53
2023/09/24 09:09:02;;;;;;;6.77;3.00;;;22.50;52.30;;;;;;5056389;27;94070;-53
2023/09/24 09:11:40;;;;;;;2.77;2.13;;;22.50;52.20;;;;;;5055692;27;94853;-54
2023/09/24 09:14:09;;;;;;;2.73;2.10;;;22.50;52.30;;;;;;5056207;27;93004;-54
2023/09/24 09:16:57;;;;;;;5.00;2.47;;;22.50;52.20;;;;;;5055759;27;92228;-54
2023/09/24 09:19:26;;;;;;;4.27;2.47;;;22.50;52.20;;;;;;5056138;27;94151;-54
2023/09/24 09:21:56;;;;;;;1.80;1.53;;;22.50;52.20;;;;;;5055271;27;92709;-53
2023/09/24 09:24:24;;;;;;;3.53;2.47;;;22.50;52.20;;;;;;5053059;27;92069;-54
2023/09/24 09:26:54;;;;;;;4.30;2.30;;;22.50;52.30;;;;;;5055561;27;91415;-53
2023/09/24 09:29:23;;;;;;;3.13;2.40;;;22.50;52.20;;;;;;5055217;27;93413;-53
2023/09/24 09:31:51;;;;;;;2.33;1.97;;;22.50;52.20;;;;;;5055791;27;92705;-53
2023/09/24 09:34:20;;;;;;;5.97;2.37;;;22.50;52.20;;;;;;5055928;27;93112;-53
2023/09/24 09:36:49;;;;;;;3.60;1.93;;;22.50;52.80;;;;;;5055826;27;92101;-53
2023/09/24 09:39:18;;;;;;;3.23;2.27;;;22.50;52.10;;;;;;5054589;27;93341;-53
2023/09/24 09:41:46;;;;;;;3.10;2.03;;;22.50;52.10;;;;;;5053150;27;92957;-52
2023/09/24 09:44:14;;;;;;;2.37;1.67;;;22.50;52.10;;;;;;5055193;27;92503;-53
2023/09/24 09:46:45;;;;;;;2.90;2.20;;;22.50;52.10;;;;;;5055873;27;92157;-53
2023/09/24 09:49:13;;;;;;;5.10;2.20;;;22.60;52.20;;;;;;5055732;27;93985;-52
2023/09/24 09:51:44;;;;;;;3.27;2.23;;;22.60;52.20;;;;;;5055208;27;92118;-53
2023/09/24 09:54:13;;;;;;;3.07;2.30;;;22.60;52.20;;;;;;5054742;27;92126;-53
2023/09/24 09:56:43;;;;;;;3.33;2.17;;;22.60;52.20;;;;;;5055020;27;92323;-53
2023/09/24 09:59:11;;;;;;;2.67;2.03;;;22.60;52.20;;;;;;5054203;27;92977;-53
2023/09/24 10:01:39;;;;;;;4.90;2.77;;;22.60;52.20;;;;;;5054184;27;94285;-54
2023/09/24 10:04:08;;;;;;;2.77;1.63;;;22.60;52.10;;;;;;5056063;27;91988;-54
2023/09/24 10:06:39;;;;;;;4.23;2.27;;;22.60;52.10;;;;;;5055670;27;92137;-53
2023/09/24 10:09:35;;;;;;;2.73;1.87;;;22.70;52.20;;;;;;5054255;27;93200;-54
2023/09/24 10:12:07;;;;;;;3.83;2.63;;;22.60;52.10;;;;;;5054392;27;92562;-54
2023/09/24 10:14:36;;;;;;;3.43;2.57;;;22.70;52.10;;;;;;5055060;27;92148;-53
2023/09/24 10:17:23;;;;;;;4.60;2.80;;;22.70;52.10;;;;;;5055941;27;91357;-53
2023/09/24 10:19:53;;;;;;;5.07;2.50;;;22.70;52.10;;;;;;5055048;27;93243;-54
2023/09/24 10:22:26;;;;;;;4.93;2.60;;;22.70;52.10;;;;;;5055817;27;92094;-54
2023/09/24 10:24:54;;;;;;;7.50;3.00;;;22.70;52.10;;;;;;5075454;27;93265;-54
2023/09/24 10:27:27;;;;;;;3.57;2.33;;;22.70;52.10;;;;;;5075515;27;93196;-54
2023/09/24 10:30:19;;;;;;;4.40;2.77;;;22.70;52.10;;;;;;5075646;27;93408;-54
2023/09/24 10:32:50;;;;;;;5.73;2.97;;;22.70;52.10;;;;;;5075534;27;94015;-54
2023/09/24 10:35:20;;;;;;;4.23;2.40;;;22.70;52.00;;;;;;5075977;27;92010;-53
2023/09/24 10:38:00;;;;;;;3.87;2.67;;;22.80;52.10;;;;;;5075952;27;92216;-53
2023/09/24 10:40:28;;;;;;;2.13;1.97;;;22.70;52.10;;;;;;5075928;27;92327;-53
2023/09/24 10:43:17;;;;;;;4.77;2.47;;;22.80;52.10;;;;;;5075527;27;93742;-53
2023/09/24 10:45:45;;;;;;;3.87;2.43;;;22.80;52.10;;;;;;5075812;27;92717;-53
2023/09/24 10:48:14;;;;;;;2.90;2.50;;;22.80;52.00;;;;;;5076094;27;92289;-53
2023/09/24 10:50:43;;;;;;;3.30;2.70;;;22.80;52.00;;;;;;5073540;27;95027;-52
2023/09/24 10:53:11;;;;;;;6.07;2.67;;;22.80;52.00;;;;;;5074841;27;93973;-53
2023/09/24 10:55:42;;;;;;;3.47;2.40;;;22.80;52.00;;;;;;5074813;27;92096;-54
2023/09/24 10:58:17;;;;;;;3.90;2.60;;;22.80;52.00;;;;;;5074582;27;92237;-53
2023/09/24 11:00:51;;;;;;;6.80;3.33;;;22.80;52.00;;;;;;5075107;27;93171;-53
2023/09/24 11:03:19;;;;;;;4.07;2.53;;;22.90;52.00;;;;;;5075860;27;92806;-54
2023/09/24 11:05:48;;;;;;;5.43;3.20;;;22.90;52.00;;;;;;5047839;27;94468;-54
2023/09/24 11:08:18;;;;;;;4.77;2.40;;;22.90;52.00;;;;;;5038760;27;91417;-54
2023/09/24 11:10:49;;;;;;;3.33;2.30;;;22.90;52.00;;;;;;5034593;27;94215;-54
2023/09/24 11:13:19;;;;;;;2.70;2.17;;;22.90;52.00;;;;;;5034274;28;93928;-54
2023/09/24 11:15:47;;;;;;;4.63;3.10;;;22.90;52.00;;;;;;5042149;27;93078;-54
2023/09/24 11:18:15;;;;;;;5.47;2.37;;;22.90;52.00;;;;;;5055113;27;92012;-54
2023/09/24 11:20:50;;;;;;;3.43;2.00;;;23.00;52.10;;;;;;5053071;27;93302;-53
2023/09/24 11:23:19;;;;;;;6.67;3.27;;;23.00;52.10;;;;;;5054012;27;95407;-53
2023/09/24 11:25:47;;;;;;;3.90;2.40;;;23.00;52.00;;;;;;5048240;27;92075;-53
2023/09/24 11:28:15;;;;;;;3.43;2.23;;;23.00;52.00;;;;;;5043969;27;92299;-53
2023/09/24 11:30:46;;;;;;;2.67;2.37;;;23.00;52.00;;;;;;5053996;27;93825;-53
2023/09/24 11:33:16;;;;;;;4.00;2.63;;;23.00;52.00;;;;;;5037463;27;92793;-53
2023/09/24 11:35:45;;;;;;;2.83;2.03;;;23.00;52.00;;;;;;5034686;28;92181;-53
2023/09/24 11:38:14;;;;;;;2.97;1.97;;;23.00;52.00;;;;;;5034520;27;92340;-53
2023/09/24 11:40:42;;;;;;;2.27;2.00;;;23.00;52.00;;;;;;5033501;28;94235;-53
2023/09/24 11:43:13;;;;;;;2.80;1.83;;;23.00;52.00;;;;;;5034623;28;93842;-53
2023/09/24 11:45:46;;;;;;;6.13;2.23;;;23.00;52.00;;;;;;5034380;28;92041;-53
2023/09/24 11:48:15;;;;;;;4.03;1.83;;;23.00;52.00;;;;;;5034000;28;92145;-54
2023/09/24 11:50:44;;;;;;;2.63;1.63;;;23.10;52.00;;;;;;5034208;28;94348;-53
2023/09/24 11:53:12;;;;;;;3.17;2.13;;;23.00;51.90;;;;;;5034466;28;92736;-53
2023/09/24 11:55:41;;;;;;;2.57;1.90;;;23.10;52.00;;;;;;5034997;27;92172;-55
2023/09/24 11:58:11;;;;;;;1.60;1.20;;;23.10;52.00;;;;;;5038340;27;91990;-53
2023/09/24 12:00:39;;;;;;;3.43;1.77;;;23.10;51.90;;;;;;5033562;28;93082;-53
2023/09/24 12:03:09;;;;;;;1.37;1.27;;;23.10;51.90;;;;;;5033585;28;92867;-54
2023/09/24 12:05:37;;;;;;;1.60;1.50;;;23.10;51.90;;;;;;5034055;28;93014;-53
2023/09/24 12:08:06;;;;;;;2.93;1.53;;;23.20;52.00;;;;;;5033363;28;92328;-53
2023/09/24 12:10:36;;;;;;;5.00;1.43;;;23.20;51.90;;;;;;5034066;28;93112;-54
2023/09/24 12:13:04;;;;;;;8.90;1.63;;;23.30;52.00;;;;;;5033221;28;93786;-53
2023/09/24 12:15:33;;;;;;;5.87;1.97;;;23.20;52.00;;;;;;5033911;28;92039;-53
2023/09/24 12:18:04;;;;;;;3.20;1.93;;;23.30;52.10;;;;;;5036212;28;92693;-53
2023/09/24 12:20:34;;;;;;;3.87;1.50;;;23.30;52.20;;;;;;5037041;28;92729;-53
2023/09/24 12:23:04;;;;;;;8.73;1.80;;;23.30;52.30;;;;;;5037221;28;92965;-53
2023/09/24 12:25:34;;;;;;;3.37;1.90;;;23.40;52.40;;;;;;5037226;28;92914;-53
2023/09/24 12:28:06;;;;;;;2.77;2.17;;;23.40;52.40;;;;;;5035678;28;92106;-52
2023/09/24 12:30:34;;;;;;;1.67;1.40;;;23.50;52.50;;;;;;5036130;28;93936;-53
2023/09/24 12:33:02;;;;;;;5.43;1.70;;;23.50;52.50;;;;;;5036706;28;94644;-53
2023/09/24 12:35:31;;;;;;;3.83;1.80;;;23.50;52.50;;;;;;5037693;28;93237;-53
2023/09/24 12:38:00;;;;;;;2.80;1.40;;;23.50;52.40;;;;;;5027908;28;92559;-53
2023/09/24 12:40:28;;;;;;;2.77;1.63;;;23.50;52.40;;;;;;5016840;28;93170;-53
2023/09/24 12:42:56;;;;;;;2.83;1.40;;;23.60;52.50;;;;;;5016735;28;92754;-53
2023/09/24 12:45:24;;;;;;;1.50;1.40;;;23.60;52.40;;;;;;5017325;28;92223;-54
2023/09/24 12:47:52;;;;;;;3.33;1.50;;;23.60;52.40;;;;;;5017412;28;91931;-53
2023/09/24 12:50:21;;;;;;;3.53;1.20;;;23.70;52.50;;;;;;5034381;27;94128;-54
2023/09/24 12:52:49;;;;;;;8.03;1.40;;;23.70;52.50;;;;;;5056759;27;92755;-55
2023/09/24 12:55:18;;;;;;;3.27;1.43;;;23.70;52.40;;;;;;5056637;27;93041;-52